Time;durP1;ratioP1;P1;durP2;ratioP2;P2;SDS_P1;SDS_P2;PMS_P1;PMS_P2;Temp;Humidity;BMP_temperature;BMP_pressure;BME280_temperature;BME280_humidity;BME280_pressure;Samples;Min_cycle;Max_cycle;Signal;HPM_P1;HPM_P2
2023/09/10 00:02:13;;;;;;;;;11.00;9.00;;;;;28.65;38.59;101070.47;4956676;28;53220;-35
2023/09/10 00:04:39;;;;;;;;;11.00;9.00;;;;;28.65;38.72;101061.63;4957445;28;45219;-38
2023/09/10 00:07:04;;;;;;;;;12.25;10.50;;;;;28.65;38.40;101065.13;4956325;28;65470;-36
2023/09/10 00:09:29;;;;;;;;;12.50;11.25;;;;;28.66;39.34;101064.16;4956655;28;55215;-37
2023/09/10 00:11:55;;;;;;;;;12.00;9.00;;;;;28.66;39.18;101066.00;4957171;28;45256;-42
2023/09/10 00:14:20;;;;;;;;;13.25;10.75;;;;;28.67;39.13;101064.97;4957588;28;45592;-41
2023/09/10 00:16:45;;;;;;;;;13.25;11.50;;;;;28.66;38.56;101064.16;4956713;28;46292;-37
2023/09/10 00:19:13;;;;;;;;;10.50;10.50;;;;;28.66;39.23;101063.31;4956428;28;55993;-37
2023/09/10 00:21:41;;;;;;;;;4.25;3.00;;;;;28.67;38.79;101070.31;4956973;28;45369;-44
2023/09/10 00:24:08;;;;;;;;;14.00;13.00;;;;;28.67;38.75;101067.66;4957120;28;45416;-36
2023/09/10 00:26:34;;;;;;;;;17.00;12.50;;;;;28.65;38.81;101059.78;4939545;28;46283;-38
2023/09/10 00:28:59;;;;;;;;;14.75;14.75;;;;;28.63;39.18;101061.75;4956851;28;45267;-36
2023/09/10 00:31:25;;;;;;;;;16.75;15.00;;;;;28.65;39.12;101065.13;4956957;28;45308;-38
2023/09/10 00:33:50;;;;;;;;;12.50;9.00;;;;;28.65;38.71;101065.13;4957288;28;45489;-42
2023/09/10 00:36:16;;;;;;;;;17.00;14.00;;;;;28.65;38.32;101064.31;4956579;28;46242;-40
2023/09/10 00:38:41;;;;;;;;;11.50;9.75;;;;;28.65;38.72;101067.78;4956644;28;45294;-35
2023/09/10 00:41:07;;;;;;;;;11.50;11.25;;;;;28.66;38.99;101069.50;4956780;28;45290;-36
2023/09/10 00:43:33;;;;;;;;;11.25;11.25;;;;;28.64;38.58;101060.78;4957054;28;45600;-38
2023/09/10 00:45:59;;;;;;;;;13.75;11.00;;;;;28.64;38.99;101059.94;4959678;28;45618;-40
2023/09/10 00:48:25;;;;;;;;;15.25;11.75;;;;;28.64;38.92;101067.94;4960025;28;45355;-37
2023/09/10 00:50:51;;;;;;;;;13.75;10.50;;;;;28.64;39.73;101073.28;4960381;28;45405;-35
2023/09/10 00:53:18;;;;;;;;;9.75;9.75;;;;;28.64;39.02;101074.09;4960185;28;45377;-35
2023/09/10 00:55:45;;;;;;;;;11.75;11.00;;;;;28.62;39.40;101060.06;4959645;28;46285;-35
2023/09/10 00:58:10;;;;;;;;;10.25;10.00;;;;;28.61;39.14;101062.88;4959829;28;45309;-37
2023/09/10 01:00:36;;;;;;;;;13.75;10.50;;;;;28.60;39.28;101067.38;4959863;28;45435;-35
2023/09/10 01:03:03;;;;;;;;;10.25;9.50;;;;;28.60;38.76;101078.03;4960117;28;45344;-37
2023/09/10 01:05:32;;;;;;;;;11.25;11.00;;;;;28.58;38.67;101077.31;4959627;28;46814;-35
2023/09/10 01:07:58;;;;;;;;;12.50;11.00;;;;;28.58;39.04;101074.66;4959599;28;45378;-34
2023/09/10 01:10:29;;;;;;;;;11.50;10.25;;;;;28.57;38.51;101072.97;4960077;28;45365;-41
2023/09/10 01:12:59;;;;;;;;;13.25;10.00;;;;;28.56;38.75;101073.94;4960310;28;45264;-40
2023/09/10 01:15:33;;;;;;;;;13.75;10.00;;;;;28.55;38.98;101074.91;4959898;28;46772;-40
2023/09/10 01:18:02;;;;;;;;;11.25;10.00;;;;;28.55;39.20;101074.91;4959357;28;45747;-37
2023/09/10 01:21:15;;;;;;;;;13.25;11.50;;;;;28.54;39.05;101079.41;4959572;28;45449;-38
2023/09/10 01:23:50;;;;;;;;;11.00;11.00;;;;;28.53;39.04;101077.72;4952538;28;45303;-33
2023/09/10 01:26:15;;;;;;;;;10.50;10.50;;;;;28.52;38.71;101075.16;4959240;28;46490;-39
2023/09/10 01:28:40;;;;;;;;;9.75;8.75;;;;;28.48;38.59;101079.91;4959320;28;45401;-38
2023/09/10 01:31:06;;;;;;;;;11.00;10.50;;;;;28.50;38.32;101077.13;4941736;28;48057;-34
2023/09/10 01:33:35;;;;;;;;;12.00;9.25;;;;;28.50;39.11;101072.63;4959544;28;45421;-37
2023/09/10 01:36:26;;;;;;;;;12.75;10.25;;;;;28.49;39.11;101078.94;4959154;28;47498;-37
2023/09/10 01:39:08;;;;;;;;;10.75;9.25;;;;;28.48;38.79;101076.41;4955201;28;46201;-34
2023/09/10 01:41:36;;;;;;;;;10.00;10.00;;;;;28.45;38.35;101074.00;4959324;28;45347;-36
2023/09/10 01:44:04;;;;;;;;;10.50;10.25;;;;;28.46;38.41;101081.03;4959481;28;45371;-37
2023/09/10 01:46:32;;;;;;;;;11.50;9.00;;;;;28.47;39.09;101080.91;4958879;28;45382;-39
2023/09/10 01:48:57;;;;;;;;;9.00;9.00;;;;;28.47;38.40;101078.22;4941822;28;45829;-36
2023/09/10 01:51:23;;;;;;;;;11.50;10.50;;;;;28.45;38.87;101074.00;4959134;28;45426;-36
2023/09/10 01:53:48;;;;;;;;;13.25;10.00;;;;;28.46;38.41;101076.53;4958754;28;49863;-37
2023/09/10 01:56:13;;;;;;;;;10.00;8.75;;;;;28.47;38.30;101078.22;4958935;28;45410;-46
2023/09/10 01:58:38;;;;;;;;;9.75;8.50;;;;;28.44;39.13;101067.84;4958802;28;45859;-44
2023/09/10 02:01:06;;;;;;;;;10.50;9.25;;;;;28.46;38.31;101078.38;4959098;28;45923;-45
2023/09/10 02:03:31;;;;;;;;;12.00;9.00;;;;;28.45;38.95;101074.00;4959221;28;45381;-35
2023/09/10 02:05:58;;;;;;;;;14.75;9.50;;;;;28.45;38.60;101080.19;4941489;28;46483;-33
2023/09/10 02:08:24;;;;;;;;;10.00;9.00;;;;;28.45;38.46;101074.84;4958844;28;45801;-35
2023/09/10 02:10:49;;;;;;;;;9.75;8.75;;;;;28.45;38.29;101074.84;4958946;28;45410;-33
2023/09/10 02:13:15;;;;;;;;;14.00;9.75;;;;;28.44;39.02;101072.31;4958919;28;45560;-39
2023/09/10 02:15:40;;;;;;;;;10.75;9.50;;;;;28.45;38.33;101071.34;4958566;28;46414;-36
2023/09/10 02:18:05;;;;;;;;;9.25;9.25;;;;;28.42;38.44;101069.81;4958500;28;45369;-46
2023/09/10 02:20:37;;;;;;;;;11.00;9.25;;;;;28.43;38.44;101062.63;4958631;28;45427;-37
2023/09/10 02:23:03;;;;;;;;;11.50;10.00;;;;;28.43;38.85;101073.28;4958672;28;45411;-38
2023/09/10 02:25:29;;;;;;;;;9.50;9.25;;;;;28.44;38.69;101073.19;4958655;28;47244;-34
2023/09/10 02:27:54;;;;;;;;;13.00;11.00;;;;;28.44;39.09;101075.00;4958439;28;45408;-38
2023/09/10 02:30:20;;;;;;;;;6.25;5.50;;;;;28.43;38.71;101079.50;4958403;28;45869;-35
2023/09/10 02:32:45;;;;;;;;;10.00;9.00;;;;;28.44;38.67;101078.50;4958589;28;45668;-36
2023/09/10 02:35:11;;;;;;;;;13.50;9.00;;;;;28.43;39.03;101075.97;4958063;28;45454;-41
2023/09/10 02:37:36;;;;;;;;;10.25;9.00;;;;;28.43;39.06;101078.63;4940968;28;45376;-38
2023/09/10 02:40:01;;;;;;;;;12.50;9.00;;;;;28.43;38.79;101082.16;4924908;28;45342;-33
2023/09/10 02:42:27;;;;;;;;;11.25;10.25;;;;;28.41;38.86;101078.78;4958693;28;45619;-36
2023/09/10 02:44:52;;;;;;;;;10.50;9.75;;;;;28.41;38.77;101077.91;4940705;28;46016;-36
2023/09/10 02:47:17;;;;;;;;;12.50;8.25;;;;;28.41;38.64;101080.56;4958058;28;45442;-35
2023/09/10 02:49:43;;;;;;;;;9.25;8.75;;;;;28.41;38.73;101085.91;4957946;28;45423;-33
2023/09/10 02:52:08;;;;;;;;;12.00;9.00;;;;;28.41;39.04;101083.25;4958383;28;45548;-35
2023/09/10 02:54:35;;;;;;;;;9.50;9.50;;;;;28.39;39.35;101086.88;4957919;28;47587;-35
2023/09/10 02:57:00;;;;;;;;;12.25;10.50;;;;;28.36;38.53;101076.50;4940734;28;45572;-37
2023/09/10 02:59:26;;;;;;;;;14.00;10.75;;;;;28.37;39.19;101083.53;4958113;28;45286;-35
2023/09/10 03:01:53;;;;;;;;;5.75;4.00;;;;;28.35;39.09;101080.13;4958298;28;45396;-37
2023/09/10 03:04:19;;;;;;;;;6.25;5.75;;;;;28.35;38.50;101076.63;4940555;28;45677;-46
2023/09/10 03:06:46;;;;;;;;;8.25;7.25;;;;;28.31;38.89;101076.03;4957417;28;45402;-47
2023/09/10 03:09:11;;;;;;;;;12.25;9.00;;;;;28.29;38.51;101072.66;4940616;28;45473;-37
2023/09/10 03:11:38;;;;;;;;;9.00;8.75;;;;;28.28;39.25;101072.78;4957834;28;45497;-39
2023/09/10 03:14:04;;;;;;;;;10.50;8.00;;;;;28.26;38.55;101070.25;4957774;28;46619;-37
2023/09/10 03:16:29;;;;;;;;;10.25;9.50;;;;;28.23;38.96;101060.69;4957807;28;45577;-34
2023/09/10 03:18:55;;;;;;;;;10.00;10.00;;;;;28.23;38.65;101057.19;4957322;28;52606;-38
2023/09/10 03:21:21;;;;;;;;;14.75;10.75;;;;;28.24;38.87;101057.06;4957756;28;45365;-39
2023/09/10 03:23:46;;;;;;;;;10.50;7.75;;;;;28.23;38.98;101054.53;4957610;28;47312;-33
2023/09/10 03:26:12;;;;;;;;;13.75;9.50;;;;;28.23;38.71;101057.19;4940058;28;45235;-36
2023/09/10 03:28:37;;;;;;;;;12.25;7.00;;;;;28.22;39.20;101050.16;4957559;28;45374;-37
2023/09/10 03:31:03;;;;;;;;;8.00;6.75;;;;;28.21;39.27;101045.81;4958102;28;45540;-35
2023/09/10 03:33:28;;;;;;;;;12.00;9.50;;;;;28.22;39.45;101052.84;4957286;28;45617;-36
2023/09/10 03:35:54;;;;;;;;;11.25;8.50;;;;;28.21;38.81;101051.16;4939957;28;45368;-40
2023/09/10 03:38:19;;;;;;;;;9.50;8.50;;;;;28.20;39.27;101050.31;4957362;28;45419;-36
2023/09/10 03:40:44;;;;;;;;;9.50;9.50;;;;;28.21;39.39;101052.00;4957570;28;45295;-40
2023/09/10 03:43:10;;;;;;;;;8.75;8.75;;;;;28.22;39.35;101052.84;4957257;28;47295;-39
2023/09/10 03:45:35;;;;;;;;;9.75;7.00;;;;;28.22;39.31;101050.16;4957513;28;45548;-34
2023/09/10 03:48:00;;;;;;;;;8.25;7.75;;;;;28.21;39.60;101045.81;4957128;28;52993;-37
2023/09/10 03:50:26;;;;;;;;;11.00;8.00;;;;;28.20;39.30;101054.78;4957110;28;48215;-35
2023/09/10 03:52:52;;;;;;;;;10.00;8.00;;;;;28.17;38.86;101044.38;4957134;28;46460;-36
2023/09/10 03:55:17;;;;;;;;;10.00;10.00;;;;;28.16;38.72;101043.53;4957194;28;45416;-35
2023/09/10 03:57:42;;;;;;;;;10.75;8.00;;;;;28.15;38.87;101049.00;4957373;28;45472;-34
2023/09/10 04:00:10;;;;;;;;;7.00;7.00;;;;;28.13;39.42;101049.13;4957095;28;47532;-35
2023/09/10 04:02:36;;;;;;;;;9.50;9.00;;;;;28.12;39.34;101050.09;4957533;28;45363;-37
2023/09/10 04:05:01;;;;;;;;;10.00;9.25;;;;;28.10;39.16;101048.53;4957337;28;45354;-33
2023/09/10 04:07:26;;;;;;;;;11.50;8.25;;;;;28.10;39.16;101051.22;4956102;28;45479;-38
2023/09/10 04:09:52;;;;;;;;;10.00;9.75;;;;;28.09;39.42;101045.06;4957292;28;45380;-44
2023/09/10 04:12:17;;;;;;;;;12.25;9.00;;;;;28.07;39.17;101039.81;4956957;28;46109;-45
2023/09/10 04:14:42;;;;;;;;;10.75;8.00;;;;;28.09;39.48;101042.38;4956598;28;55884;-36
2023/09/10 04:17:07;;;;;;;;;8.00;8.00;;;;;28.11;38.86;101050.25;4957038;28;45478;-37
2023/09/10 04:19:33;;;;;;;;;10.00;8.00;;;;;28.11;39.35;101050.25;4958704;28;45225;-38
2023/09/10 04:21:58;;;;;;;;;7.75;7.75;;;;;28.10;38.89;101038.75;4960367;28;45279;-40
2023/09/10 04:24:23;;;;;;;;;10.75;9.00;;;;;28.10;38.75;101046.75;4959863;28;59170;-40
2023/09/10 04:26:49;;;;;;;;;8.25;8.00;;;;;28.11;39.07;101045.78;4960380;28;45446;-38
2023/09/10 04:29:14;;;;;;;;;9.00;8.25;;;;;28.10;39.23;101045.88;4960690;28;45635;-45
2023/09/10 04:31:42;;;;;;;;;11.25;8.25;;;;;28.10;38.83;101053.88;4959726;28;54792;-33
2023/09/10 04:34:07;;;;;;;;;8.25;7.00;;;;;28.10;39.13;101049.41;4960532;28;45476;-36
2023/09/10 04:36:32;;;;;;;;;9.75;8.00;;;;;28.11;39.16;101050.25;4960420;28;45319;-36
2023/09/10 04:38:58;;;;;;;;;9.00;7.50;;;;;28.09;38.88;101053.03;4960439;28;45632;-34
2023/09/10 04:41:23;;;;;;;;;12.50;9.00;;;;;28.07;38.94;101039.81;4960190;28;46008;-35
2023/09/10 04:43:49;;;;;;;;;9.00;9.00;;;;;28.08;39.64;101046.84;4960087;28;47905;-33
2023/09/10 04:46:15;;;;;;;;;6.75;6.25;;;;;28.08;39.56;101046.84;4960128;28;45312;-41
2023/09/10 04:48:40;;;;;;;;;9.25;7.75;;;;;28.07;39.48;101047.78;4960181;28;45367;-37
2023/09/10 04:51:05;;;;;;;;;8.75;8.50;;;;;28.07;38.96;101045.13;4959815;28;52978;-35
2023/09/10 04:53:31;;;;;;;;;10.00;8.50;;;;;28.07;38.81;101050.47;4959916;28;45343;-37
2023/09/10 04:55:56;;;;;;;;;9.00;7.75;;;;;28.05;39.18;101055.09;4959567;28;55117;-43
2023/09/10 04:58:21;;;;;;;;;12.50;10.25;;;;;28.06;39.44;101054.09;4959945;28;45330;-38
2023/09/10 05:00:49;;;;;;;;;11.00;8.75;;;;;28.06;38.97;101047.94;4959653;28;46234;-37
2023/09/10 05:03:14;;;;;;;;;11.75;8.75;;;;;28.04;39.33;101052.53;4959819;28;45465;-34
2023/09/10 05:05:40;;;;;;;;;10.75;8.50;;;;;28.03;39.32;101049.06;4959673;28;49338;-34
2023/09/10 05:08:05;;;;;;;;;8.50;8.50;;;;;28.05;39.37;101051.56;4960293;28;45282;-36
2023/09/10 05:10:30;;;;;;;;;11.25;7.75;;;;;28.03;39.14;101058.84;4959477;28;46726;-38
2023/09/10 05:12:56;;;;;;;;;9.00;9.00;;;;;28.03;39.47;101053.50;4959686;28;45352;-34
2023/09/10 05:15:22;;;;;;;;;9.75;8.25;;;;;28.03;39.47;101061.50;4959626;28;45401;-37
2023/09/10 05:17:47;;;;;;;;;11.50;9.25;;;;;28.03;39.02;101057.03;4959692;28;45311;-40
2023/09/10 05:20:13;;;;;;;;;8.50;8.00;;;;;28.02;39.17;101058.00;4959499;28;46552;-36
2023/09/10 05:22:38;;;;;;;;;9.25;7.00;;;;;28.02;39.48;101060.69;4959887;28;45480;-38
2023/09/10 05:25:04;;;;;;;;;13.25;8.00;;;;;28.02;39.66;101057.16;4959555;28;45409;-37
2023/09/10 05:27:29;;;;;;;;;9.50;9.25;;;;;28.02;39.52;101060.69;4959683;28;45323;-36
2023/09/10 05:29:55;;;;;;;;;11.00;9.00;;;;;27.99;39.77;101052.94;4958686;28;46405;-41
2023/09/10 05:32:20;;;;;;;;;9.00;7.25;;;;;28.00;39.30;101056.47;4959348;28;45248;-37
2023/09/10 05:34:45;;;;;;;;;10.50;10.00;;;;;27.98;39.27;101056.56;4959383;28;45276;-35
2023/09/10 05:37:12;;;;;;;;;8.75;8.25;;;;;28.01;39.33;101061.66;4959735;28;45240;-38
2023/09/10 05:39:37;;;;;;;;;10.50;10.00;;;;;27.99;39.49;101057.44;4959455;28;46563;-34
2023/09/10 05:42:03;;;;;;;;;10.25;8.00;;;;;27.97;39.77;101049.56;4958811;28;58270;-38
2023/09/10 05:44:28;;;;;;;;;7.00;7.00;;;;;27.98;39.33;101059.22;4959207;28;45400;-35
2023/09/10 05:46:53;;;;;;;;;8.50;7.25;;;;;27.97;39.64;101060.19;4959394;28;45393;-36
2023/09/10 05:49:19;;;;;;;;;11.25;9.00;;;;;27.97;39.34;101062.88;4958053;28;67496;-40
2023/09/10 05:51:45;;;;;;;;;11.25;9.75;;;;;27.96;39.73;101061.19;4958973;28;45356;-34
2023/09/10 05:54:10;;;;;;;;;13.50;10.50;;;;;27.96;39.61;101061.19;4959476;28;45398;-36
2023/09/10 05:56:35;;;;;;;;;7.50;5.50;;;;;27.96;39.20;101065.66;4958852;28;46325;-35
2023/09/10 05:59:01;;;;;;;;;11.75;9.00;;;;;27.96;39.39;101068.34;4958071;28;64611;-36
2023/09/10 06:01:26;;;;;;;;;10.75;9.00;;;;;27.94;39.67;101071.13;4958714;28;45450;-33
2023/09/10 06:03:52;;;;;;;;;10.50;9.00;;;;;27.95;39.72;101069.31;4958919;28;45331;-36
2023/09/10 06:06:17;;;;;;;;;10.00;9.25;;;;;27.96;39.08;101073.66;4959146;28;45564;-44
2023/09/10 06:08:42;;;;;;;;;8.00;7.25;;;;;27.94;39.21;101073.81;4958614;28;57265;-35
2023/09/10 06:11:07;;;;;;;;;9.25;9.25;;;;;27.95;39.18;101067.47;4958459;28;49012;-36
2023/09/10 06:13:33;;;;;;;;;8.00;7.50;;;;;27.94;39.44;101065.81;4958739;28;45421;-32
2023/09/10 06:15:59;;;;;;;;;9.25;8.00;;;;;27.95;39.09;101070.13;4959035;28;45402;-34
2023/09/10 06:18:24;;;;;;;;;10.50;8.50;;;;;27.96;39.07;101074.50;4941072;28;47575;-35
2023/09/10 06:20:49;;;;;;;;;10.00;8.50;;;;;27.95;39.18;101078.13;4957791;28;63558;-45
2023/09/10 06:23:15;;;;;;;;;10.50;9.25;;;;;27.94;38.99;101065.81;4958625;28;45264;-44
2023/09/10 06:25:40;;;;;;;;;9.25;9.00;;;;;27.94;39.54;101065.81;4959077;28;45413;-43
2023/09/10 06:28:07;;;;;;;;;11.25;8.25;;;;;27.91;39.34;101074.88;4958010;28;55413;-36
2023/09/10 06:30:32;;;;;;;;;8.75;8.50;;;;;27.90;39.31;101075.03;4958412;28;45596;-35
2023/09/10 06:32:57;;;;;;;;;9.75;9.75;;;;;27.87;39.10;101076.13;4941284;28;45982;-33
2023/09/10 06:35:23;;;;;;;;;12.25;10.00;;;;;27.86;39.24;101086.91;4957960;28;57700;-35
2023/09/10 06:37:48;;;;;;;;;12.00;8.25;;;;;27.80;39.13;101074.94;4958358;28;46735;-36
2023/09/10 06:40:14;;;;;;;;;11.25;9.00;;;;;27.80;38.96;101074.09;4958592;28;45467;-36
2023/09/10 06:42:40;;;;;;;;;7.25;7.25;;;;;27.78;39.10;101082.22;4957492;28;45480;-34
2023/09/10 06:45:05;;;;;;;;;9.00;8.25;;;;;27.76;39.23;101079.66;4958527;28;45676;-36
2023/09/10 06:47:31;;;;;;;;;10.25;10.25;;;;;27.76;38.67;101087.66;4958124;28;46337;-39
2023/09/10 06:49:56;;;;;;;;;9.00;9.00;;;;;27.76;39.00;101090.31;4957833;28;45518;-45
2023/09/10 06:52:22;;;;;;;;;11.25;9.50;;;;;27.76;38.98;101081.50;4957843;28;45401;-44
2023/09/10 06:54:47;;;;;;;;;10.00;9.00;;;;;27.77;39.32;101083.19;4958119;28;45470;-42
2023/09/10 06:57:13;;;;;;;;;12.25;8.25;;;;;27.79;39.12;101078.56;4957932;28;46257;-45
2023/09/10 06:59:41;;;;;;;;;11.00;10.25;;;;;27.76;39.21;101074.34;4957810;28;45410;-45
2023/09/10 07:02:07;;;;;;;;;13.00;9.25;;;;;27.81;39.62;101081.13;4957998;28;45328;-47
2023/09/10 07:04:32;;;;;;;;;11.00;11.00;;;;;27.82;39.00;101077.50;4958090;28;45639;-38
2023/09/10 07:06:58;;;;;;;;;13.00;10.00;;;;;27.82;39.18;101080.16;4957740;28;46058;-36
2023/09/10 07:09:23;;;;;;;;;11.25;10.50;;;;;27.83;39.22;101079.19;4957190;28;58770;-40
2023/09/10 07:11:53;;;;;;;;;10.00;8.75;;;;;27.87;39.40;101091.25;4957992;28;45551;-36
2023/09/10 07:14:20;;;;;;;;;11.00;10.00;;;;;27.87;39.57;101088.59;4956777;28;45537;-35
2023/09/10 07:16:46;;;;;;;;;12.00;10.00;;;;;27.88;39.29;101096.47;4957783;28;46340;-36
2023/09/10 07:19:12;;;;;;;;;9.75;9.00;;;;;27.89;39.03;101095.47;4957556;28;45776;-36
2023/09/10 07:21:38;;;;;;;;;14.25;12.00;;;;;27.92;39.64;101089.91;4957879;28;45372;-38
2023/09/10 07:24:06;;;;;;;;;11.00;9.00;;;;;27.93;39.45;101090.75;4957904;28;45563;-39
2023/09/10 07:26:38;;;;;;;;;13.25;10.00;;;;;27.94;39.21;101092.44;4957306;28;45400;-37
2023/09/10 07:29:05;;;;;;;;;10.75;9.50;;;;;27.94;39.35;101097.78;4957603;28;45418;-38
2023/09/10 07:31:30;;;;;;;;;10.50;10.00;;;;;27.95;39.09;101103.94;4957628;28;45342;-37
2023/09/10 07:33:55;;;;;;;;;11.00;10.25;;;;;27.96;39.59;101106.47;4957774;28;45478;-33
2023/09/10 07:36:21;;;;;;;;;12.50;11.25;;;;;27.97;39.55;101102.81;4957173;28;45571;-33
2023/09/10 07:38:47;;;;;;;;;9.00;7.50;;;;;27.99;39.38;101110.72;4957674;28;45323;-33
2023/09/10 07:41:12;;;;;;;;;10.50;10.00;;;;;27.99;38.99;101103.56;4957583;28;45263;-36
2023/09/10 07:43:38;;;;;;;;;9.25;9.25;;;;;28.00;38.99;101113.25;4957677;28;45699;-40
2023/09/10 07:46:03;;;;;;;;;9.25;8.25;;;;;28.02;38.83;101110.44;4939279;28;61176;-36
2023/09/10 07:48:28;;;;;;;;;10.75;10.75;;;;;28.02;39.14;101116.63;4957136;28;45394;-42
2023/09/10 07:50:58;;;;;;;;;10.75;10.75;;;;;28.03;39.07;101120.97;4957286;28;45363;-45
2023/09/10 07:53:23;;;;;;;;;8.00;8.00;;;;;28.03;38.46;101107.66;4957238;28;45407;-38
2023/09/10 07:55:49;;;;;;;;;9.00;9.00;;;;;28.04;38.90;101101.38;4957331;28;45401;-35
2023/09/10 07:58:14;;;;;;;;;12.75;9.25;;;;;28.05;39.24;101095.06;4957420;28;45311;-39
2023/09/10 08:00:40;;;;;;;;;13.00;9.00;;;;;28.06;38.63;101107.38;4957431;28;45373;-42
2023/09/10 08:03:06;;;;;;;;;13.25;10.50;;;;;28.05;38.64;101089.72;4957465;28;45335;-40
2023/09/10 08:05:33;;;;;;;;;9.75;8.25;;;;;28.07;38.62;101111.75;4957047;28;45689;-36
2023/09/10 08:08:03;;;;;;;;;11.00;10.75;;;;;28.05;38.21;101100.38;4957123;28;45287;-41
2023/09/10 08:10:29;;;;;;;;;14.25;10.50;;;;;28.10;38.41;101096.50;4957014;28;45286;-43
2023/09/10 08:12:55;;;;;;;;;8.75;7.00;;;;;28.11;38.51;101103.53;4939627;28;45473;-41
2023/09/10 08:15:20;;;;;;;;;10.75;9.75;;;;;28.12;38.71;101103.38;4957129;28;45347;-39
2023/09/10 08:17:45;;;;;;;;;9.25;8.50;;;;;28.13;38.67;101098.91;4956891;28;45414;-39
2023/09/10 08:20:11;;;;;;;;;10.50;9.50;;;;;28.15;38.95;101104.97;4956612;28;53319;-36
2023/09/10 08:22:37;;;;;;;;;9.50;8.50;;;;;28.15;38.92;101100.47;4957177;28;45511;-35
2023/09/10 08:25:04;;;;;;;;;10.25;8.50;;;;;28.16;38.48;101090.69;4956760;28;46414;-33
2023/09/10 08:27:29;;;;;;;;;9.00;8.25;;;;;28.20;38.91;101097.41;4956905;28;45253;-33
2023/09/10 08:29:55;;;;;;;;;11.25;8.75;;;;;28.21;38.97;101099.97;4956888;28;45245;-37
2023/09/10 08:32:20;;;;;;;;;11.25;7.25;;;;;28.25;39.03;101097.88;4939449;28;51376;-40
2023/09/10 08:34:45;;;;;;;;;12.25;9.00;;;;;28.28;38.51;101100.28;4956557;28;45454;-41
2023/09/10 08:37:11;;;;;;;;;10.50;9.00;;;;;28.31;38.98;101093.84;4956599;28;45327;-40
2023/09/10 08:39:37;;;;;;;;;10.25;8.75;;;;;28.32;39.21;101104.38;4946653;28;45347;-34
2023/09/10 08:42:20;;;;;;;;;9.50;8.75;;;;;28.31;38.68;101097.34;4939226;28;45398;-34
2023/09/10 08:44:54;;;;;;;;;11.50;8.00;;;;;28.31;39.22;101094.69;4956541;28;46239;-33
2023/09/10 08:47:22;;;;;;;;;9.00;9.00;;;;;28.31;39.03;101096.53;4956692;28;45853;-36
2023/09/10 08:49:51;;;;;;;;;13.00;8.00;;;;;28.33;38.84;101091.91;4939297;28;45321;-34
2023/09/10 08:52:18;;;;;;;;;11.50;10.00;;;;;28.32;39.10;101091.06;4956031;28;45443;-34
2023/09/10 08:54:43;;;;;;;;;9.50;8.25;;;;;28.32;39.57;101093.72;4956341;28;46892;-37
2023/09/10 08:57:11;;;;;;;;;11.00;8.75;;;;;28.35;39.05;101093.47;4956373;28;45330;-34
2023/09/10 08:59:38;;;;;;;;;9.25;8.50;;;;;28.35;38.93;101096.13;4956199;28;45248;-38
2023/09/10 09:02:04;;;;;;;;;9.25;9.25;;;;;28.34;39.39;101090.91;4939170;28;45349;-38
2023/09/10 09:04:30;;;;;;;;;8.25;7.75;;;;;28.34;38.93;101086.44;4956069;28;45533;-35
2023/09/10 09:07:00;;;;;;;;;12.00;9.75;;;;;28.35;39.31;101079.28;4959136;28;45377;-36
2023/09/10 09:09:33;;;;;;;;;11.50;10.25;;;;;28.36;38.96;101081.84;4959036;28;45278;-34
2023/09/10 09:12:00;;;;;;;;;11.50;8.00;;;;;28.37;38.92;101080.84;4959890;28;45624;-37
2023/09/10 09:14:27;;;;;;;;;13.25;8.50;;;;;28.35;38.84;101080.13;4959325;28;45418;-37
2023/09/10 09:16:53;;;;;;;;;9.75;8.25;;;;;28.37;39.24;101077.34;4959534;28;45677;-33
2023/09/10 09:19:21;;;;;;;;;9.75;8.50;;;;;28.38;39.23;101079.88;4958862;28;45877;-34
2023/09/10 09:21:49;;;;;;;;;10.00;10.00;;;;;28.38;39.28;101081.69;4959108;28;45441;-36
2023/09/10 09:24:15;;;;;;;;;9.50;8.75;;;;;28.37;39.48;101080.84;4958609;28;45683;-38
2023/09/10 09:26:42;;;;;;;;;8.50;8.25;;;;;28.39;39.48;101080.72;4958843;28;45279;-42
2023/09/10 09:29:08;;;;;;;;;11.50;9.75;;;;;28.38;39.36;101069.22;4958569;28;45290;-48
2023/09/10 09:31:34;;;;;;;;;11.75;8.75;;;;;28.39;39.01;101075.38;4959064;28;45326;-37
2023/09/10 09:33:59;;;;;;;;;13.25;10.75;;;;;28.38;38.96;101066.56;4941009;28;50189;-38
2023/09/10 09:36:32;;;;;;;;;10.50;8.00;;;;;28.42;39.54;101068.94;4958649;28;45392;-37
2023/09/10 09:38:57;;;;;;;;;10.50;8.00;;;;;28.41;38.94;101061.91;4929711;28;45324;-39
2023/09/10 09:41:23;;;;;;;;;11.00;10.00;;;;;28.42;39.38;101060.94;4939702;28;45290;-46
2023/09/10 09:43:48;;;;;;;;;11.25;8.50;;;;;28.42;39.27;101058.28;4939177;28;45314;-38
2023/09/10 09:46:14;;;;;;;;;11.75;9.25;;;;;28.41;39.25;101049.44;4938871;28;46462;-46
2023/09/10 09:48:39;;;;;;;;;19.00;10.50;;;;;28.45;39.39;101058.03;4939022;28;45292;-38
2023/09/10 09:51:05;;;;;;;;;11.75;11.25;;;;;28.45;39.34;101052.69;4939373;28;45464;-39
2023/09/10 09:53:32;;;;;;;;;11.25;9.00;;;;;28.45;38.81;101063.34;4938842;28;45671;-39
2023/09/10 09:56:04;;;;;;;;;13.00;11.25;;;;;28.45;38.89;101053.50;4939179;28;45667;-37
2023/09/10 09:58:30;;;;;;;;;8.75;8.25;;;;;28.45;38.68;101050.84;4939187;28;45484;-44
2023/09/10 10:00:56;;;;;;;;;10.25;10.25;;;;;28.46;39.49;101052.53;4939239;28;45439;-37
2023/09/10 10:03:22;;;;;;;;;9.75;9.75;;;;;28.46;38.68;101049.03;4939240;28;46249;-40
2023/09/10 10:05:49;;;;;;;;;11.00;10.00;;;;;28.47;38.76;101050.75;4938892;28;45358;-41
2023/09/10 10:08:15;;;;;;;;;9.75;8.00;;;;;28.47;38.75;101050.75;4942751;28;45236;-36
2023/09/10 10:10:50;;;;;;;;;11.25;10.00;;;;;28.47;39.14;101048.06;4958378;28;45527;-37
2023/09/10 10:13:17;;;;;;;;;10.75;10.00;;;;;28.47;38.86;101048.91;4957866;28;46816;-42
2023/09/10 10:15:47;;;;;;;;;10.25;9.00;;;;;28.49;39.38;101048.78;4957868;28;45239;-33
2023/09/10 10:18:18;;;;;;;;;11.00;9.00;;;;;28.50;39.41;101042.44;4956979;28;45395;-44
2023/09/10 10:20:47;;;;;;;;;9.00;9.00;;;;;28.50;38.78;101040.66;4958115;28;45364;-42
2023/09/10 10:23:17;;;;;;;;;11.25;9.25;;;;;28.53;39.41;101042.19;4957787;28;47202;-38
2023/09/10 10:25:44;;;;;;;;;12.75;10.00;;;;;28.56;39.34;101044.59;4957708;28;45766;-37
2023/09/10 10:28:10;;;;;;;;;9.25;9.25;;;;;28.57;39.41;101042.78;4949655;28;45664;-42
2023/09/10 10:30:44;;;;;;;;;8.75;8.75;;;;;28.58;38.86;101037.31;4948058;28;45544;-39
2023/09/10 10:33:10;;;;;;;;;13.00;11.50;;;;;28.59;38.63;101038.16;4948270;28;46375;-40
2023/09/10 10:35:41;;;;;;;;;11.25;10.25;;;;;28.59;38.77;101038.16;4943118;28;45371;-37
2023/09/10 10:38:08;;;;;;;;;11.00;9.50;;;;;28.58;38.92;101036.47;4938367;28;45407;-37
2023/09/10 10:40:43;;;;;;;;;10.00;9.00;;;;;28.57;39.33;101030.28;4939154;28;45180;-38
2023/09/10 10:43:13;;;;;;;;;14.00;11.50;;;;;28.59;38.79;101031.00;4938705;28;46236;-43
2023/09/10 10:45:39;;;;;;;;;10.50;9.50;;;;;28.60;39.45;101029.19;4939161;28;45354;-47
2023/09/10 10:48:09;;;;;;;;;10.75;10.50;;;;;28.60;38.78;101030.03;4938840;28;45399;-39
2023/09/10 10:50:36;;;;;;;;;11.00;9.75;;;;;28.60;39.21;101021.19;4939108;28;45378;-48
2023/09/10 10:53:10;;;;;;;;;9.25;8.00;;;;;28.59;38.75;101017.69;4938764;28;46196;-45
2023/09/10 10:55:38;;;;;;;;;12.25;10.50;;;;;28.60;39.33;101005.19;4938857;28;45561;-35
2023/09/10 10:58:03;;;;;;;;;11.00;10.50;;;;;28.59;39.08;101011.47;4921419;28;45419;-39
2023/09/10 11:00:29;;;;;;;;;13.25;13.25;;;;;28.60;39.42;101008.72;4939212;28;45831;-36
2023/09/10 11:03:08;;;;;;;;;9.75;9.75;;;;;28.59;38.99;101007.00;4938971;28;46507;-39
2023/09/10 11:05:52;;;;;;;;;9.50;8.50;;;;;28.58;39.02;101010.66;4938593;28;45738;-38
2023/09/10 11:08:28;;;;;;;;;9.75;9.75;;;;;28.58;39.63;101000.00;4938619;28;45323;-36
2023/09/10 11:10:54;;;;;;;;;9.50;9.50;;;;;28.58;39.34;100996.47;4921487;28;45493;-34
2023/09/10 11:13:19;;;;;;;;;12.75;9.25;;;;;28.58;39.52;101000.00;4938490;28;46616;-35
2023/09/10 11:16:03;;;;;;;;;12.50;10.25;;;;;28.59;39.40;100996.34;4938057;28;53869;-36